Record high temperature 107.1°F Record low temperature 10.6°F Record high gust 49.5 mph Record high average 28.3 mph Record daily rain 11.65 in. Record low windchill 2.7°F Record high barometer 30.818 in. Record low barometer 29.078 in.
Daily high pressure 30.116 in. Daily low pressure 30.078 in. Daily low windchill 52.7°F Daily high heat index 59.1°F Daily high gust speed 0.0 mph WNW Daily high average speed 0.0 mph WNW
On the Greenway Weather data
LAST READING AT TIME: 9:42 AM DATE: September 25 2017, time of next update: 9:43 am
Current WeatherOvercast/Dry Current Temperature 59.1°F (15.1°C), Apparent temp 60.5°F, Apparent temp solar 60.5 °F
Maximum Temperature (since midnight)59.1°F at: 9:41 AM Minimum Temperature (since midnight)52.7°F at: 5:25 AM
Average windspeed (ten minute)0.0 mph Wind Direction (ten minute)ENE (77°)
Windchill Temperature 59.1°F Maximum Gust (last hour)0.0 mph at: 9:00 AM
Maximum Gust (since midnight)0.0 mph at: 11:31 AM Maximum 1 minute average (since midnight)0.0 mph at: 12:33 PM
Rainfall (last hour)0.00 in. (0.0 mm) Rainfall (since midnight)0.00 in. (0.0 mm) ---
Rainfall This month 2.61 in. (66.3 mm) Rainfall To date this year 58.27 in. (1480.1 mm)
Maximum rain per minute (last hour)0.00 in/min Maximum rain per hour (last 6 hours)0.00 in/hour
Yesterdays rainfall 0.00 in DewPoint 54.3°F (Wet Bulb :56.4°F )
Humidity 84 %, Humidex 63.5°F Barometer corrected to msl30.114 in. (1019.8 hPa)
Pressure change +0.01 in. (last hour) Trend (last hour)STEADY
Pressure change (last 12 hours)+0.03 in Pressure change (last 6 hours)+0.02 in
Current Indoor Temp. 83.5°F
Current Indoor Hum. 33%
Current Solar 0 W/Mē
Maximum solar (since midnight) 0 W/Mē Minimum solar (since midnight)0 W/Mē
Current 00:00 hours of sunshine today, current sky: Overcast
Sunshine hours for the year: 00:00 hrs Sunshine hours for the month: 00:00 hrs
Current evapotranspiration 0.01 inches per day. Yesterday's reading 0.01

This page is updated from recent data collected by a DAVIS VANTAGE PRO weather station Use the Reload or Refresh facility on your browser to retrieve the latest data.


Click here for the last 24 hour graph
Click here for the last 48 hour graph
Click here for the last 72 hour graph
Click here for the month to date graph


Weather report/warning/Metars

Expires:201709252215;;913378
FPUS56 KPQR 251509
ZFPPQR

Zone Forecasts for Northwest Oregon and Southwest Washington
National Weather Service Portland OR
809 AM PDT Mon Sep 25 2017

Spot Temperatures are for Today, Tonight, Tuesday, Tuesday
Night, and Wednesday.


ORZ006-WAZ039-252215-
Greater Portland Metro Area-Greater Vancouver Area-
Including the cities of Hillsboro, Portland, Wilsonville, 
Oregon City, Gresham, Troutdale, Vancouver, Battle Ground, 
Ridgefield, Washougal, Yacolt, and Amboy
809 AM PDT Mon Sep 25 2017

.TODAY...Mostly cloudy. Occasional sprinkles. Highs 65 to 70. Light
wind. 
.TONIGHT...Mostly cloudy. Occasional sprinkles in the evening. Lows
50 to 55. Light wind. 
.TUESDAY...Mostly cloudy in the morning, then mostly sunny. Highs
around 75. Light wind. 
.TUESDAY NIGHT...Mostly clear. Lows around 55. North wind 5 to
10 mph. 
.WEDNESDAY...Sunny. Highs 80 to 85. Northeast wind 5 to 10 mph. 
.WEDNESDAY NIGHT...Clear. Lows 55 to 60. 
.THURSDAY...Sunny. Highs around 80. 
.THURSDAY NIGHT...Clear in the evening, then partly cloudy. Lows
around 55. 
.FRIDAY...Partly cloudy. Highs around 75. 
.FRIDAY NIGHT...Partly cloudy. A 20 percent chance of showers after
midnight. Lows 50 to 55. 
.SATURDAY...Partly cloudy. A 20 percent chance of showers in the
morning. Highs 70 to 75. 
.SATURDAY NIGHT...Partly cloudy. Lows around 50. 
.SUNDAY...Partly sunny. Highs around 70. 

&&
                  TEMPERATURE         
Portland          69  57  76  56  82
Hillsboro         69  54  77  52  83

$$
=


PORTLAND-HILLSBORO AIRPORT, OR, United States (KHIO) 45-33N 122-57W 68M
Sep 25, 2017 - 11:53 AM EDT / 2017.09.25 1553 UTC
Wind: from the W (280 degrees) at 3 MPH (3 KT):0
Visibility: 10 mile(s):0
Sky conditions: overcast
Temperature: 55.9 F (13.3 C)
Dew Point: 53.1 F (11.7 C)
Relative Humidity: 90%
Pressure (altimeter): 30.12 in. Hg (1019 hPa)
ob: KHIO 251553Z 28003KT 10SM OVC095 13/12 A3012 RMK AO2 SLP199 T01330117
cycle: 16
PORTLAND INTERNATIONAL  AIRPORT, OR, United States (KPDX) 45-35N 122-36W 7M
Sep 25, 2017 - 11:53 AM EDT / 2017.09.25 1553 UTC
Wind: Calm:0
Visibility: 10 mile(s):0
Sky conditions: overcast
Precipitation last hour: A trace
Temperature: 57.9 F (14.4 C)
Dew Point: 52.0 F (11.1 C)
Relative Humidity: 80%
Pressure (altimeter): 30.13 in. Hg (1020 hPa)
ob: KPDX 251553Z 00000KT 10SM FEW080 OVC120 14/11 A3013 RMK AO2 RAB08E18 SLP200 P0000 T01440111
cycle: 16
PORTLAND-TROUTDALE AIRPORT, OR, United States (KTTD) 45-33N 122-25W 14M
Sep 25, 2017 - 11:53 AM EDT / 2017.09.25 1553 UTC
Wind: Calm:0
Visibility: 10 mile(s):0
Sky conditions: mostly cloudy
Precipitation last hour: A trace
Temperature: 57.9 F (14.4 C)
Dew Point: 52.0 F (11.1 C)
Relative Humidity: 80%
Pressure (altimeter): 30.12 in. Hg (1019 hPa)
ob: KTTD 251553Z 00000KT 10SM FEW095 BKN110 14/11 A3012 RMK AO2 RAB14E40 SLP200 P0000 T01440111
cycle: 16
MCMINNVILLE MUNICIPAL AIRPORT , OR, United States (KMMV) 45-12N 123-08W 48M
Sep 25, 2017 - 11:53 AM EDT / 2017.09.25 1553 UTC
Wind: Calm:0
Visibility: 10 mile(s):0
Sky conditions: overcast
Weather: light rain
Precipitation last hour: A trace
Temperature: 55.9 F (13.3 C)
Dew Point: 53.1 F (11.7 C)
Relative Humidity: 90%
Pressure (altimeter): 30.13 in. Hg (1020 hPa)
ob: KMMV 251553Z AUTO 00000KT 10SM -RA BKN100 OVC120 13/12 A3013 RMK AO2 RAB44 SLP204 P0000 T01330117
cycle: 16
SALEM MCNARY FIELD, OR, United States (KSLE) 44-54N 123-00W 59M
Sep 25, 2017 - 11:56 AM EDT / 2017.09.25 1556 UTC
Wind: from the SSE (150 degrees) at 6 MPH (5 KT):0
Visibility: 10 mile(s):0
Sky conditions: overcast
Weather: light rain
Precipitation last hour: A trace
Temperature: 55.9 F (13.3 C)
Dew Point: 51.1 F (10.6 C)
Relative Humidity: 83%
Pressure (altimeter): 30.12 in. Hg (1019 hPa)
ob: KSLE 251556Z 15005KT 10SM -RA OVC100 13/11 A3012 RMK AO2 RAB49 SLP200 P0000 T01330106
cycle: 16
REDMOND ROBERTS FIELD, OR, United States (KRDM) 44-15N 121-08W
Sep 25, 2017 - 11:56 AM EDT / 2017.09.25 1556 UTC
Wind: from the SSE (150 degrees) at 5 MPH (4 KT):0
Visibility: 10 mile(s):0
Sky conditions: overcast
Temperature: 51.1 F (10.6 C)
Dew Point: 32.0 F (0.0 C)
Relative Humidity: 47%
Pressure (altimeter): 30.15 in. Hg (1020 hPa)
ob: KRDM 251556Z 15004KT 10SM OVC110 11/00 A3015 RMK AO2 SLP208 T01060000
cycle: 16

Date: 9/25/2017
Sunrise at:
07:02 am

Sunset at:
07:04 pm

Moonrise at:
12:32 pm 09/25/17

Moonset at:
09:43 pm 09/24/17

First Quarter  September 28 2017
Full moon  October 5 2017
Last QuarterOctober 12 2017
New moon October 19 2017
Moon age: 4 days,20 hours,25 minutes,25%
Hours of possible daylight today was 12:02:00



Use the RELOAD facility on your browser to retrieve the latest data.

Click here for current Fire weather info
Click here for the daily CLIMATOLOGICAL SUMMARY
Click here for a daily update of the averages/extremes to date for the month




Created by "Weather Display" software version 10.37R at this start time/date 10:33:54 AM 9/21/2017




On The Greenway Weather Web Site

 
 
HELP US OUT
Help us keep this weather station on the web. for the Tigard / Portland internet users to use. If you would like to help, click the donate button below
 
This site is purely funded by donations and by myself (Ray Cooper)
Anything you can do will help keep this station on the net
Average cost per year is $665 to publish and host this site excluding the cost of the weather equipment
Buyastrostuff.com is kind enough to host our DNS and email at no cost.
THANKS GUYS & Gals for helping
Have a Question,or just want to talk. Contact me at:
Ray Cooper @ Buyastrostuff.com
 

Weather Underground PWS KORTIGAR12 Weather Underground PWS KORTIGAR12